Time;durP1;ratioP1;P1;durP2;ratioP2;P2;SDS_P1;SDS_P2;PMS_P1;PMS_P2;Temp;Humidity;BMP_temperature;BMP_pressure;BME280_temperature;BME280_humidity;BME280_pressure;Samples;Min_cycle;Max_cycle;Signal;HPM_P1;HPM_P2
2022/02/24 00:01:35;;;;;;;;;60.00;47.00;;;;;1.91;73.68;100543.66;6281809;20;2872115;-55
2022/02/24 00:04:04;;;;;;;;;70.50;55.00;;;;;1.74;73.98;100540.34;6282659;20;2866907;-55
2022/02/24 00:06:34;;;;;;;;;76.67;56.00;;;;;1.54;74.75;100549.38;6280744;20;2884643;-54
2022/02/24 00:09:04;;;;;;;;;67.50;50.00;;;;;1.20;75.52;100555.91;6308421;20;2498161;-54
2022/02/24 00:11:37;;;;;;;;;67.00;50.00;;;;;0.97;76.63;100556.09;6281997;20;2862166;-54
2022/02/24 00:14:06;;;;;;;;;71.50;55.00;;;;;0.83;77.18;100558.88;6282106;20;2877354;-54
2022/02/24 00:16:34;;;;;;;;;71.50;50.00;;;;;0.71;77.24;100553.66;6279462;20;2495067;-55
2022/02/24 00:19:06;;;;;;;;;63.00;50.00;;;;;0.69;78.58;100560.75;6281543;20;2810697;-54
2022/02/24 00:21:34;;;;;;;;;62.00;48.50;;;;;0.60;77.28;100562.53;6282328;20;2865910;-56
2022/02/24 00:24:04;;;;;;;;;64.50;51.50;;;;;0.65;76.50;100559.88;6282825;20;2861882;-56
2022/02/24 00:26:33;;;;;;;;;69.00;50.00;;;;;0.72;77.97;100560.72;6284994;20;2500337;-54
2022/02/24 00:29:02;;;;;;;;;64.00;46.00;;;;;0.89;77.52;100561.44;6277911;20;2503499;-56
2022/02/24 00:31:30;;;;;;;;;61.50;48.00;;;;;0.60;78.51;100566.94;6277835;20;2498299;-56
2022/02/24 00:34:01;;;;;;;;;66.67;45.33;;;;;0.52;77.17;100556.44;6282467;20;2888966;-55
2022/02/24 00:36:30;;;;;;;;;62.00;47.50;;;;;0.72;77.59;100556.31;6311931;20;2874212;-56
2022/02/24 00:38:57;;;;;;;;;60.00;46.50;;;;;0.25;78.26;100561.88;6275250;20;2490094;-55
2022/02/24 00:41:26;;;;;;;;;59.00;43.00;;;;;0.28;76.98;100561.88;6280702;20;2877410;-56
2022/02/24 00:43:55;;;;;;;;;49.00;42.00;;;;;0.26;77.34;100553.06;6280899;20;2856604;-56
2022/02/24 00:46:23;;;;;;;;;68.00;49.50;;;;;0.18;77.86;100546.06;6279736;20;2503399;-53
2022/02/24 00:48:52;;;;;;;;;67.50;45.50;;;;;0.55;77.47;100540.56;6280822;20;2882597;-51
2022/02/24 00:51:20;;;;;;;;;66.00;46.00;;;;;0.21;78.25;100547.81;6275196;20;2487795;-55
2022/02/24 00:53:49;;;;;;;;;77.00;56.50;;;;;0.36;77.49;100549.50;6279555;20;2881673;-57
2022/02/24 00:56:17;;;;;;;;;68.50;49.50;;;;;0.67;77.37;100544.00;6278433;20;2496106;-55
2022/02/24 00:58:46;;;;;;;;;59.00;48.00;;;;;0.43;78.34;100540.66;6278941;20;2856968;-46
2022/02/24 01:01:16;;;;;;;;;56.50;45.00;;;;;0.53;78.44;100539.72;6282542;20;2872157;-48
2022/02/24 01:03:47;;;;;;;;;58.67;46.33;;;;;0.58;78.25;100542.28;6280839;20;2881547;-45
2022/02/24 01:06:18;;;;;;;;;55.00;43.50;;;;;0.67;78.04;100541.38;6310088;20;2866936;-44
2022/02/24 01:08:47;;;;;;;;;51.00;42.50;;;;;0.64;78.05;100542.28;6280231;20;2855535;-45
2022/02/24 01:11:16;;;;;;;;;46.67;44.33;;;;;0.71;77.23;100541.34;6282114;20;3582648;-44
2022/02/24 01:13:44;;;;;;;;;42.50;34.00;;;;;0.74;77.29;100543.97;6279080;20;2500274;-44
2022/02/24 01:16:12;;;;;;;;;56.50;45.00;;;;;0.28;77.92;100541.63;6278051;20;2526346;-48
2022/02/24 01:18:41;;;;;;;;;65.50;49.50;;;;;0.28;78.82;100553.94;6276286;20;2871207;-44
2022/02/24 01:21:10;;;;;;;;;64.00;51.50;;;;;0.18;79.15;100556.63;6280486;20;2857639;-45
2022/02/24 01:23:39;;;;;;;;;64.00;47.00;;;;;0.22;79.18;100555.72;6282018;20;2883558;-47
2022/02/24 01:26:07;;;;;;;;;67.00;50.50;;;;;0.34;79.68;100559.19;6276376;20;2508602;-46
2022/02/24 01:28:36;;;;;;;;;57.00;46.00;;;;;0.45;77.78;100552.09;6278021;20;2467956;-47
2022/02/24 01:31:04;;;;;;;;;73.50;53.50;;;;;0.44;77.75;100547.69;6279011;20;2492027;-45
2022/02/24 01:33:32;;;;;;;;;64.50;50.00;;;;;0.11;78.66;100557.56;6278048;20;2498329;-47
2022/02/24 01:35:59;;;;;;;;;68.00;49.00;;;;;-0.15;78.96;100556.81;6275262;20;2491125;-46
2022/02/24 01:38:28;;;;;;;;;68.50;51.50;;;;;-0.08;80.02;100547.94;6279624;20;2855499;-44
2022/02/24 01:40:56;;;;;;;;;65.00;49.00;;;;;0.17;79.16;100548.72;6276283;20;2500295;-44
2022/02/24 01:43:27;;;;;;;;;67.50;51.00;;;;;-0.16;79.25;100550.63;6279123;20;2872153;-44
2022/02/24 01:45:57;;;;;;;;;68.50;50.00;;;;;-0.30;79.63;100550.69;6280431;20;2870065;-45
2022/02/24 01:48:30;;;;;;;;;57.50;43.50;;;;;-0.25;80.07;100548.03;6278954;20;2865870;-45
2022/02/24 01:50:59;;;;;;;;;64.00;47.00;;;;;-0.38;80.91;100552.47;6280673;20;2866925;-43
2022/02/24 01:53:30;;;;;;;;;56.50;46.00;;;;;-0.30;80.27;100553.31;6279001;20;2862896;-45
2022/02/24 01:55:58;;;;;;;;;42.50;36.50;;;;;-0.01;79.47;100549.69;6274865;20;2500686;-44
2022/02/24 01:58:27;;;;;;;;;51.00;44.00;;;;;-0.29;79.85;100552.44;6279156;20;2865898;-45
2022/02/24 02:00:56;;;;;;;;;65.00;47.00;;;;;-0.22;79.48;100546.25;6279645;20;2882128;-44
2022/02/24 02:03:25;;;;;;;;;52.00;42.00;;;;;-0.16;79.25;100544.47;6279863;20;2867979;-43
2022/02/24 02:06:00;;;;;;;;;54.00;41.67;;;;;0.18;77.69;100542.53;6277516;20;2866923;-45
2022/02/24 02:08:29;;;;;;;;;54.50;46.00;;;;;-0.16;77.90;100547.09;6310970;20;2866941;-43
2022/02/24 02:10:57;;;;;;;;;48.00;43.50;;;;;-0.55;79.72;100544.63;6277548;20;2503627;-57
2022/02/24 02:13:25;;;;;;;;;61.00;46.50;;;;;-0.38;79.28;100544.56;6277249;20;2489920;-55
2022/02/24 02:15:54;;;;;;;;;64.00;48.50;;;;;-0.53;80.45;100548.09;6276437;20;2875320;-56
2022/02/24 02:18:22;;;;;;;;;63.50;49.50;;;;;-0.20;79.91;100545.38;6277575;20;2499238;-57
2022/02/24 02:20:54;;;;;;;;;54.00;45.50;;;;;0.35;77.52;100539.81;6283289;20;2866051;-56
2022/02/24 02:23:22;;;;;;;;;46.00;39.50;;;;;0.19;77.87;100536.41;6283157;20;2500366;-46
2022/02/24 02:25:50;;;;;;;;;51.50;42.00;;;;;-0.37;79.29;100542.78;6285497;20;2862793;-48
2022/02/24 02:28:19;;;;;;;;;43.50;39.50;;;;;-0.45;80.23;100540.16;6283115;20;2872146;-46
2022/02/24 02:30:49;;;;;;;;;71.67;46.00;;;;;-0.37;80.58;100543.69;6284361;20;2881766;-46
2022/02/24 02:33:17;;;;;;;;;53.00;40.00;;;;;-0.15;78.93;100539.19;6311562;20;2504413;-48
2022/02/24 02:35:46;;;;;;;;;64.00;46.50;;;;;-0.45;78.92;100546.34;6312633;20;2856512;-46
2022/02/24 02:38:15;;;;;;;;;61.00;46.00;;;;;-0.72;80.71;100542.00;6285151;20;2864827;-46
2022/02/24 02:40:44;;;;;;;;;55.33;41.00;;;;;-0.56;79.92;100545.47;6284422;20;3634624;-47
2022/02/24 02:43:13;;;;;;;;;55.50;45.50;;;;;-0.87;80.87;100542.00;6314899;20;2859743;-46
2022/02/24 02:45:42;;;;;;;;;62.50;47.00;;;;;-0.30;79.67;100544.53;6280713;20;2508612;-46
2022/02/24 02:48:12;;;;;;;;;59.33;46.00;;;;;-0.48;78.95;100542.81;6280426;20;2879578;-45
2022/02/24 02:50:41;;;;;;;;;59.50;47.50;;;;;-0.89;80.97;100539.41;6315852;20;2855576;-47
2022/02/24 02:53:10;;;;;;;;;64.50;47.50;;;;;-0.47;79.39;100552.50;6283578;20;2865902;-46
2022/02/24 02:55:38;;;;;;;;;42.50;37.00;;;;;-1.21;80.23;100551.69;6282329;20;2852363;-48
2022/02/24 02:58:06;;;;;;;;;50.50;40.50;;;;;-0.96;80.23;100557.84;6278071;20;2500244;-47
2022/02/24 03:00:35;;;;;;;;;54.00;42.33;;;;;-0.76;79.89;100558.72;6284005;20;3614859;-45
2022/02/24 03:03:03;;;;;;;;;45.00;34.50;;;;;-0.88;80.75;100558.72;6279514;20;2500394;-44
2022/02/24 03:05:31;;;;;;;;;43.00;38.50;;;;;-0.45;79.36;100561.28;6279852;20;2500262;-43
2022/02/24 03:08:00;;;;;;;;;48.00;37.00;;;;;-0.60;80.13;100566.59;6284417;20;3614817;-44
2022/02/24 03:10:28;;;;;;;;;48.50;38.50;;;;;-0.53;80.15;100560.41;6275587;20;2504462;-44
2022/02/24 03:12:56;;;;;;;;;66.00;49.50;;;;;-0.69;79.91;100562.22;6281547;20;2498197;-45
2022/02/24 03:15:25;;;;;;;;;83.00;59.50;;;;;-1.20;80.62;100564.88;6282710;20;2887815;-44
2022/02/24 03:17:54;;;;;;;;;63.50;45.50;;;;;-1.49;81.19;100562.22;6283246;20;2883608;-44
2022/02/24 03:20:23;;;;;;;;;52.50;40.50;;;;;-1.55;80.73;100565.72;6281465;20;2870110;-43
2022/02/24 03:22:52;;;;;;;;;41.50;33.00;;;;;-1.52;81.12;100575.38;6280969;20;2500304;-43
2022/02/24 03:25:21;;;;;;;;;48.67;36.00;;;;;-1.52;80.72;100575.38;6282446;20;3605444;-44
2022/02/24 03:27:48;;;;;;;;;39.00;34.00;;;;;-1.83;81.81;100569.16;6280529;20;2500359;-47
2022/02/24 03:30:18;;;;;;;;;42.67;34.33;;;;;-1.60;82.22;100567.47;6278952;20;3590851;-50
2022/02/24 03:32:46;;;;;;;;;42.50;33.50;;;;;-1.50;80.62;100564.84;6281941;20;2500355;-44
2022/02/24 03:35:14;;;;;;;;;55.50;42.00;;;;;-1.76;81.06;100557.78;6277388;20;2502378;-44
2022/02/24 03:37:43;;;;;;;;;42.00;35.00;;;;;-1.58;81.00;100563.09;6278322;20;2500283;-46
2022/02/24 03:40:13;;;;;;;;;43.50;34.00;;;;;-1.71;81.45;100558.69;6280444;20;2500337;-47
2022/02/24 03:42:44;;;;;;;;;42.00;31.00;;;;;-1.16;81.33;100556.13;6281728;20;3604489;-46
2022/02/24 03:45:12;;;;;;;;;29.00;29.00;;;;;-0.72;80.03;100557.81;6282983;20;2849244;-46
2022/02/24 03:47:41;;;;;;;;;42.00;31.00;;;;;-0.37;79.43;100559.53;6280291;20;2500407;-45
2022/02/24 03:50:13;;;;;;;;;93.80;71.40;;;;;-0.23;78.66;100547.16;6278786;20;3638166;-46
2022/02/24 03:52:41;;;;;;;;;78.50;59.00;;;;;-0.24;78.38;100555.97;6280032;20;2500323;-46
2022/02/24 03:55:11;;;;;;;;;59.00;46.50;;;;;-0.38;79.08;100565.66;6281924;20;2868365;-46
2022/02/24 03:57:39;;;;;;;;;39.00;36.00;;;;;-0.25;78.66;100561.22;6279871;20;2500262;-56
2022/02/24 04:00:10;;;;;;;;;43.50;29.50;;;;;-0.10;77.92;100566.44;6277943;20;2500465;-56
2022/02/24 04:02:39;;;;;;;;;38.33;29.33;;;;;-0.87;80.40;100571.00;6282681;20;3587726;-55
2022/02/24 04:05:09;;;;;;;;;38.50;32.00;;;;;-0.92;80.89;100567.53;6278785;20;2500251;-55
2022/02/24 04:07:41;;;;;;;;;31.80;23.80;;;;;-0.68;81.01;100561.34;6319338;20;1978472;-54
2022/02/24 04:10:10;;;;;;;;;55.50;43.50;;;;;-0.69;79.34;100563.06;6311083;20;2897141;-56
2022/02/24 04:12:38;;;;;;;;;50.00;37.50;;;;;-0.87;79.94;100560.47;6276452;20;2500743;-54
2022/02/24 04:15:06;;;;;;;;;42.00;36.50;;;;;-0.57;78.95;100567.47;6279602;20;2504441;-54
2022/02/24 04:17:34;;;;;;;;;37.50;31.00;;;;;-0.98;81.30;100567.50;6280954;20;2852373;-55
2022/02/24 04:20:03;;;;;;;;;40.50;32.00;;;;;-1.03;80.80;100561.38;6279375;20;2500240;-42
2022/02/24 04:22:31;;;;;;;;;39.00;35.00;;;;;-1.20;80.64;100558.75;6282722;20;2850382;-43
2022/02/24 04:24:59;;;;;;;;;39.00;32.00;;;;;-1.41;82.05;100567.50;6281404;20;2500239;-46
2022/02/24 04:27:28;;;;;;;;;44.75;34.50;;;;;-1.80;80.77;100564.78;6281675;20;3615844;-47
2022/02/24 04:29:56;;;;;;;;;40.00;28.50;;;;;-2.13;81.55;100557.66;6308938;20;2867080;-44
2022/02/24 04:32:24;;;;;;;;;34.00;26.50;;;;;-2.16;80.99;100544.47;6281074;20;2854435;-44
2022/02/24 04:34:52;;;;;;;;;31.00;25.00;;;;;-1.94;80.04;100552.47;6281617;20;2835753;-44
2022/02/24 04:37:24;;;;;;;;;34.33;26.67;;;;;-1.96;81.04;100548.94;6302450;20;2854585;-46
2022/02/24 04:39:52;;;;;;;;;31.00;24.00;;;;;-2.20;80.78;100550.63;6279189;20;2841051;-44
2022/02/24 04:42:20;;;;;;;;;33.33;26.67;;;;;-2.58;82.39;100545.16;6281688;20;3588793;-45
2022/02/24 04:44:49;;;;;;;;;36.00;27.67;;;;;-2.05;81.35;100542.78;6312969;20;3600237;-44
2022/02/24 04:47:21;;;;;;;;;33.33;25.00;;;;;-2.34;81.83;100547.03;6281275;20;3598165;-46
2022/02/24 04:49:50;;;;;;;;;30.67;24.33;;;;;-2.01;81.67;100544.53;6310350;20;3587711;-45
2022/02/24 04:52:19;;;;;;;;;29.00;24.00;;;;;-2.24;81.71;100555.00;6281452;20;2839880;-46
2022/02/24 04:54:48;;;;;;;;;45.00;30.67;;;;;-2.32;82.85;100545.28;6274154;20;3608654;-47
2022/02/24 04:57:18;;;;;;;;;39.50;27.50;;;;;-2.19;82.64;100544.47;6278874;20;2863796;-46
2022/02/24 04:59:46;;;;;;;;;44.00;36.00;;;;;-1.75;80.43;100542.88;6280957;20;2850331;-45
2022/02/24 05:02:15;;;;;;;;;35.00;33.67;;;;;-1.81;80.17;100543.72;6280791;20;3578395;-46
2022/02/24 05:04:43;;;;;;;;;47.00;31.00;;;;;-2.01;81.47;100552.44;6272312;20;2878511;-44
2022/02/24 05:07:12;;;;;;;;;36.00;33.00;;;;;-2.20;81.95;100540.09;6281187;20;2863788;-43
2022/02/24 05:09:40;;;;;;;;;35.00;30.00;;;;;-2.40;82.67;100541.75;6277734;20;2500335;-42
2022/02/24 05:12:09;;;;;;;;;42.00;33.50;;;;;-2.15;82.64;100534.84;6282643;20;2860706;-43
2022/02/24 05:14:37;;;;;;;;;47.00;37.00;;;;;-2.03;82.17;100526.97;6282801;20;2851330;-43
2022/02/24 05:17:06;;;;;;;;;43.00;37.67;;;;;-1.92;81.32;100540.16;6279889;20;3601323;-46
2022/02/24 05:19:34;;;;;;;;;47.00;34.00;;;;;-2.23;82.63;100537.44;6278942;20;2874221;-45
2022/02/24 05:22:02;;;;;;;;;50.00;40.00;;;;;-1.89;82.13;100548.09;6275822;20;2500318;-45
2022/02/24 05:24:33;;;;;;;;;48.00;39.50;;;;;-2.21;83.30;100543.59;6274474;20;2500380;-44
2022/02/24 05:27:01;;;;;;;;;63.50;48.50;;;;;-1.93;82.48;100556.84;6277383;20;2883580;-43
2022/02/24 05:29:29;;;;;;;;;58.00;43.50;;;;;-2.00;82.41;100550.69;6272663;20;2508602;-45
2022/02/24 05:31:58;;;;;;;;;57.00;42.50;;;;;-2.24;82.48;100560.25;6280954;20;2884668;-54
2022/02/24 05:34:29;;;;;;;;;54.50;45.50;;;;;-1.98;82.68;100564.72;6279633;20;2879432;-54
2022/02/24 05:36:59;;;;;;;;;74.33;53.00;;;;;-1.92;82.89;100566.47;6279075;20;2884843;-56
2022/02/24 05:39:28;;;;;;;;;71.50;44.50;;;;;-2.35;83.48;100567.19;6307640;20;2881566;-55
2022/02/24 05:41:59;;;;;;;;;78.00;58.00;;;;;-2.19;82.83;100570.78;6278040;20;2867990;-52
2022/02/24 05:44:27;;;;;;;;;77.00;57.00;;;;;-1.81;82.22;100580.59;6282743;20;2863862;-53
2022/02/24 05:46:57;;;;;;;;;91.33;63.33;;;;;-2.09;81.59;100584.84;6280208;20;2908735;-55
2022/02/24 05:49:27;;;;;;;;;79.00;60.00;;;;;-2.35;82.91;100582.09;6310824;20;2885740;-54
2022/02/24 05:51:56;;;;;;;;;68.00;48.00;;;;;-1.49;81.87;100590.31;6281204;20;2877379;-55
2022/02/24 05:54:25;;;;;;;;;6.50;0.00;;;;;-1.79;82.11;100589.34;6332476;20;1838903;-53
2022/02/24 05:56:53;;;;;;;;;64.00;48.50;;;;;-1.89;82.13;100588.44;6312262;20;2504399;-53
2022/02/24 05:59:21;;;;;;;;;58.00;47.00;;;;;-2.06;83.28;100593.63;6285136;20;2858578;-54
2022/02/24 06:01:50;;;;;;;;;49.50;40.00;;;;;-1.65;82.23;100592.03;6285517;20;2879473;-44
2022/02/24 06:04:19;;;;;;;;;45.50;34.00;;;;;-1.35;80.91;100592.06;6284507;20;2877318;-44
2022/02/24 06:06:52;;;;;;;;;58.33;43.67;;;;;-1.52;80.66;100587.69;6281145;20;2889926;-45
2022/02/24 06:09:20;;;;;;;;;52.00;42.50;;;;;-1.53;80.64;100596.44;6313136;20;2500248;-43
2022/02/24 06:11:50;;;;;;;;;57.00;46.00;;;;;-1.44;79.87;100586.81;6281949;20;2508631;-43
2022/02/24 06:14:19;;;;;;;;;68.00;48.00;;;;;-1.73;81.18;100583.25;6283625;20;2889899;-44
2022/02/24 06:16:48;;;;;;;;;71.00;53.00;;;;;-1.81;81.24;100588.47;6283687;20;2876388;-43
2022/02/24 06:19:17;;;;;;;;;68.50;49.50;;;;;-1.36;80.77;100595.59;6284518;20;2894035;-47
2022/02/24 06:21:48;;;;;;;;;80.00;61.50;;;;;-1.47;80.84;100580.66;6285297;20;2866939;-49
2022/02/24 06:24:16;;;;;;;;;70.50;58.50;;;;;-1.05;80.87;100578.94;6281658;20;2500301;-45
2022/02/24 06:26:43;;;;;;;;;75.00;53.50;;;;;-1.04;79.49;100583.34;6283208;20;2880454;-42
2022/02/24 06:29:11;;;;;;;;;75.00;56.00;;;;;-0.51;79.18;100585.03;6280928;20;2500281;-44
2022/02/24 06:31:40;;;;;;;;;71.00;54.50;;;;;-0.50;79.13;100584.13;6279196;20;2495183;-55
2022/02/24 06:34:09;;;;;;;;;74.00;54.50;;;;;-0.04;77.83;100584.91;6286251;20;2871086;-54
2022/02/24 06:36:38;;;;;;;;;77.50;60.00;;;;;0.00;78.51;100588.41;6284705;20;2876317;-56
2022/02/24 06:39:07;;;;;;;;;75.00;57.00;;;;;0.08;77.71;100583.09;6285531;20;2883632;-52
2022/02/24 06:41:35;;;;;;;;;80.00;61.00;;;;;0.56;76.62;100589.88;6281308;20;2879446;-54
2022/02/24 06:44:04;;;;;;;;;73.50;56.50;;;;;0.42;76.50;100583.78;6285639;20;2876677;-54
2022/02/24 06:46:32;;;;;;;;;68.50;55.50;;;;;0.19;76.86;100587.44;6282360;20;2500320;-50
2022/02/24 06:49:01;;;;;;;;;75.00;55.50;;;;;0.39;76.37;100589.09;6282549;20;2881528;-53
2022/02/24 06:51:31;;;;;;;;;84.33;61.33;;;;;0.24;77.59;100594.44;6283701;20;3652038;-54
2022/02/24 06:54:01;;;;;;;;;66.50;52.00;;;;;0.65;75.51;100597.72;6308790;20;2500287;-53
2022/02/24 06:56:31;;;;;;;;;93.33;69.33;;;;;0.77;76.39;100595.91;6282528;20;3658547;-48
2022/02/24 06:59:02;;;;;;;;;139.00;104.50;;;;;1.60;74.52;100601.34;6315030;20;4489763;-52
2022/02/24 07:01:31;;;;;;;;;142.00;112.50;;;;;3.34;68.00;100601.63;6278227;20;1960869;-54
2022/02/24 07:04:02;;;;;;;;;129.50;103.75;;;;;4.13;63.89;100594.84;6284114;20;4499194;-59
2022/02/24 07:06:31;;;;;;;;;91.67;67.00;;;;;4.30;62.52;100588.28;6318630;20;3662844;-56
2022/02/24 07:09:01;;;;;;;;;75.67;57.67;;;;;4.24;62.70;100594.63;6285406;20;2884872;-52
2022/02/24 07:11:31;;;;;;;;;70.00;56.67;;;;;4.88;61.33;100599.41;6318823;20;2861784;-54
2022/02/24 07:14:01;;;;;;;;;68.67;52.33;;;;;5.54;59.73;100592.44;6319786;20;3636674;-55
2022/02/24 07:16:32;;;;;;;;;58.00;47.00;;;;;5.86;57.91;100595.09;6318986;20;2855671;-51
2022/02/24 07:19:04;;;;;;;;;47.00;36.00;;;;;6.13;56.85;100595.28;6283129;20;2864013;-55
2022/02/24 07:21:33;;;;;;;;;55.67;40.00;;;;;5.75;58.46;100589.19;6324740;20;3639804;-55
2022/02/24 07:24:02;;;;;;;;;41.00;32.67;;;;;5.72;58.34;100589.28;6288525;20;3620422;-53
2022/02/24 07:26:31;;;;;;;;;48.67;41.67;;;;;4.74;61.36;100587.31;6288134;20;2869141;-56
2022/02/24 07:29:01;;;;;;;;;66.33;48.33;;;;;4.73;62.38;100590.00;6317648;20;2877014;-51
2022/02/24 07:31:30;;;;;;;;;69.67;52.33;;;;;3.94;64.60;100593.44;6319583;20;2886765;-56
2022/02/24 07:34:04;;;;;;;;;40.33;32.00;;;;;3.29;67.00;100596.41;6316981;20;2852507;-55
2022/02/24 07:36:35;;;;;;;;;259.33;185.00;;;;;3.64;68.20;100590.47;6319646;20;3718948;-52
2022/02/24 07:39:10;;;;;;;;;85.00;63.33;;;;;3.93;67.97;100586.41;6283940;20;3646079;-56
2022/02/24 07:41:40;;;;;;;;;57.00;41.33;;;;;4.11;68.13;100586.03;6317237;20;3637719;-56
2022/02/24 07:44:10;;;;;;;;;102.00;79.67;;;;;4.50;67.60;100587.84;6318486;20;3686800;-47
2022/02/24 07:46:39;;;;;;;;;60.00;47.00;;;;;4.64;66.48;100584.91;6285110;20;2862788;-46
2022/02/24 07:49:08;;;;;;;;;64.50;52.00;;;;;4.81;65.69;100582.69;6286961;20;2860705;-47
2022/02/24 07:51:37;;;;;;;;;45.00;37.00;;;;;4.61;66.02;100580.53;6286236;20;2873297;-46
2022/02/24 07:54:07;;;;;;;;;42.67;32.00;;;;;4.96;65.30;100584.13;6318462;20;3633661;-47
2022/02/24 07:56:36;;;;;;;;;41.00;39.50;;;;;5.46;65.22;100585.53;6317158;20;2862776;-47
2022/02/24 07:59:05;;;;;;;;;60.00;44.00;;;;;5.31;65.38;100577.91;6285652;20;3625665;-46
2022/02/24 08:01:35;;;;;;;;;53.00;39.00;;;;;5.26;65.92;100585.16;6317715;20;3624255;-50
2022/02/24 08:04:05;;;;;;;;;52.67;41.33;;;;;5.88;64.41;100579.94;6317476;20;2881616;-51
2022/02/24 08:06:36;;;;;;;;;56.00;44.00;;;;;6.03;63.81;100588.44;6317619;20;2873336;-48
2022/02/24 08:09:06;;;;;;;;;47.33;40.00;;;;;6.32;62.54;100596.50;6315062;20;2877421;-46
2022/02/24 08:11:36;;;;;;;;;46.50;41.00;;;;;6.22;62.90;100595.03;6315011;20;2868099;-47
2022/02/24 08:14:06;;;;;;;;;44.67;34.00;;;;;6.03;61.78;100589.34;6282453;20;3630424;-48
2022/02/24 08:16:35;;;;;;;;;54.50;42.50;;;;;6.14;61.55;100591.72;6316821;20;2865930;-46
2022/02/24 08:19:04;;;;;;;;;56.00;44.50;;;;;6.31;61.22;100589.41;6283873;20;2859633;-46
2022/02/24 08:21:31;;;;;;;;;50.50;42.00;;;;;7.19;59.92;100594.69;6282901;20;2496207;-45
2022/02/24 08:24:00;;;;;;;;;28.33;18.00;;;;;7.20;59.64;100581.28;6285516;20;3570211;-44
2022/02/24 08:26:29;;;;;;;;;53.33;40.33;;;;;7.26;58.82;100586.41;6285189;20;2871089;-45
2022/02/24 08:28:58;;;;;;;;;48.00;37.67;;;;;7.47;58.75;100586.59;6319112;20;3610718;-46
2022/02/24 08:31:28;;;;;;;;;42.67;36.67;;;;;7.77;59.09;100589.16;6281611;20;2858659;-45
2022/02/24 08:33:56;;;;;;;;;41.00;37.67;;;;;7.75;57.93;100583.00;6317880;20;3604419;-44
2022/02/24 08:36:27;;;;;;;;;31.00;30.50;;;;;7.95;57.56;100569.75;6287619;20;2847259;-46
2022/02/24 08:38:56;;;;;;;;;26.00;18.00;;;;;7.79;57.09;100568.56;6283776;20;2844013;-45
2022/02/24 08:41:40;;;;;;;;;20.00;18.67;;;;;7.68;57.10;100576.97;6285430;20;3551389;-48
2022/02/24 08:44:08;;;;;;;;;23.50;20.00;;;;;8.28;56.25;100575.66;6283944;20;2833630;-47
2022/02/24 08:46:44;;;;;;;;;21.33;16.33;;;;;8.66;55.26;100569.78;6283807;20;3551274;-45
2022/02/24 08:49:13;;;;;;;;;19.00;15.00;;;;;8.35;55.31;100573.63;6286105;20;3546068;-48
2022/02/24 08:51:42;;;;;;;;;21.33;14.00;;;;;8.81;54.91;100566.50;6315455;20;3559714;-46
2022/02/24 08:54:11;;;;;;;;;45.33;36.67;;;;;8.87;54.66;100563.56;6320315;20;3610653;-47
2022/02/24 08:56:39;;;;;;;;;18.00;18.00;;;;;8.62;54.92;100561.00;6284339;20;3555528;-52
2022/02/24 08:59:08;;;;;;;;;19.67;14.33;;;;;9.54;53.74;100561.72;6315580;20;3532626;-51
2022/02/24 09:01:37;;;;;;;;;18.00;13.50;;;;;9.55;53.27;100553.56;6314892;20;3429419;-47
2022/02/24 09:04:05;;;;;;;;;16.33;14.00;;;;;9.11;52.39;100555.47;6315841;20;2801732;-47
2022/02/24 09:06:33;;;;;;;;;13.00;13.00;;;;;9.17;53.22;100550.75;6315865;20;2800277;-49
2022/02/24 09:09:03;;;;;;;;;28.00;26.00;;;;;9.23;51.83;100555.81;6285020;20;2847180;-47
2022/02/24 09:11:33;;;;;;;;;16.00;13.50;;;;;9.09;52.01;100560.03;6316976;20;2795082;-44
2022/02/24 09:14:03;;;;;;;;;14.00;12.33;;;;;9.34;52.00;100550.00;6287198;20;3522158;-45
2022/02/24 09:16:31;;;;;;;;;20.50;18.00;;;;;9.75;51.80;100547.34;6281505;20;2831489;-45
2022/02/24 09:19:03;;;;;;;;;11.29;8.71;;;;;9.57;52.31;100546.34;6326003;20;1808615;-46
2022/02/24 09:21:31;;;;;;;;;18.00;15.00;;;;;9.43;51.98;100536.22;6318255;20;2826442;-48
2022/02/24 09:24:00;;;;;;;;;20.33;16.67;;;;;9.50;52.35;100534.13;6283626;20;3559596;-48
2022/02/24 09:26:28;;;;;;;;;27.00;18.00;;;;;9.77;51.34;100537.44;6286189;20;2832598;-47
2022/02/24 09:28:57;;;;;;;;;15.67;15.00;;;;;9.70;51.50;100527.91;6287854;20;3561195;-49
2022/02/24 09:31:27;;;;;;;;;19.00;16.00;;;;;9.95;51.08;100524.13;6324286;20;2811806;-46
2022/02/24 09:33:54;;;;;;;;;20.00;15.00;;;;;10.25;50.63;100522.72;6291027;20;2824209;-48
2022/02/24 09:36:24;;;;;;;;;18.33;15.00;;;;;10.60;50.20;100519.31;6290921;20;3556870;-47
2022/02/24 09:38:53;;;;;;;;;16.00;13.67;;;;;10.40;50.02;100514.91;6289293;20;2802329;-47
2022/02/24 09:41:23;;;;;;;;;12.00;11.50;;;;;10.46;49.28;100515.50;6324726;20;2784676;-47
2022/02/24 09:43:55;;;;;;;;;13.20;11.00;;;;;10.69;48.58;100521.56;6314372;20;2783598;-49
2022/02/24 09:46:24;;;;;;;;;8.00;8.00;;;;;10.49;48.27;100509.09;6290612;20;2738874;-51
2022/02/24 09:48:55;;;;;;;;;10.00;9.00;;;;;11.07;47.85;100506.22;6291551;20;2752457;-48
2022/02/24 09:51:23;;;;;;;;;7.00;7.00;;;;;10.73;47.74;100491.78;6292391;20;2739859;-46
2022/02/24 09:53:50;;;;;;;;;7.50;7.50;;;;;10.60;48.34;100500.53;6291662;20;2748231;-46
2022/02/24 09:56:23;;;;;;;;;16.00;14.00;;;;;10.56;48.92;100499.81;6283896;20;3551403;-47
2022/02/24 09:58:52;;;;;;;;;19.50;19.50;;;;;10.36;48.80;100502.59;6316158;20;2830549;-47
2022/02/24 10:01:21;;;;;;;;;24.00;22.50;;;;;10.29;48.76;100492.16;6282849;20;2834612;-48
2022/02/24 10:04:03;;;;;;;;;21.50;16.00;;;;;10.66;48.20;100492.16;6283057;20;2819063;-48
2022/02/24 10:06:44;;;;;;;;;24.00;14.50;;;;;11.24;47.89;100491.06;6283438;20;2813855;-46
2022/02/24 10:09:28;;;;;;;;;25.00;25.00;;;;;10.73;47.23;100486.41;6286822;20;2846085;-48
2022/02/24 10:12:10;;;;;;;;;14.60;10.00;;;;;10.79;46.31;100484.38;6314300;20;2785735;-48
2022/02/24 10:14:40;;;;;;;;;33.67;24.33;;;;;11.13;45.73;100484.41;6288501;20;3592972;-47
2022/02/24 10:17:08;;;;;;;;;16.50;14.00;;;;;11.18;46.64;100474.28;6323342;20;2806531;-48
2022/02/24 10:19:48;;;;;;;;;19.00;13.00;;;;;11.04;46.46;100479.53;6286452;20;3556478;-46
2022/02/24 10:22:26;;;;;;;;;26.50;19.50;;;;;11.08;45.52;100475.72;6282089;20;2475267;-48
2022/02/24 10:25:03;;;;;;;;;18.00;17.00;;;;;11.53;43.26;100470.72;6287955;20;2815217;-45
2022/02/24 10:27:39;;;;;;;;;26.50;22.00;;;;;10.85;44.55;100473.31;6287133;20;2848160;-45
2022/02/24 10:30:16;;;;;;;;;23.67;19.67;;;;;11.05;44.19;100459.75;6288632;20;2849395;-46
2022/02/24 10:32:52;;;;;;;;;13.00;9.50;;;;;11.78;43.90;100456.84;6323298;20;2785688;-46
2022/02/24 10:35:39;;;;;;;;;33.67;31.33;;;;;11.67;44.07;100451.19;6288180;20;2856593;-48
2022/02/24 10:38:11;;;;;;;;;18.00;17.33;;;;;11.45;43.10;100444.22;6316605;20;3556683;-46
2022/02/24 10:40:48;;;;;;;;;34.33;27.00;;;;;11.84;42.04;100441.22;6285775;20;3611734;-47
2022/02/24 10:43:32;;;;;;;;;21.00;20.00;;;;;11.73;42.81;100442.75;6322195;20;3574179;-48
2022/02/24 10:46:21;;;;;;;;;15.00;12.00;;;;;11.95;41.26;100437.09;6288776;20;2804533;-53
2022/02/24 10:48:57;;;;;;;;;18.00;15.50;;;;;11.89;40.71;100438.31;6289764;20;2827395;-54
2022/02/24 10:51:31;;;;;;;;;12.00;11.00;;;;;11.87;40.72;100437.50;6287377;20;2788786;-54
2022/02/24 10:54:04;;;;;;;;;15.00;13.33;;;;;12.06;40.45;100423.94;6318211;20;3537764;-54
2022/02/24 10:56:44;;;;;;;;;17.00;17.00;;;;;12.09;40.87;100423.75;6317911;20;3555450;-53
2022/02/24 10:59:32;;;;;;;;;6.00;5.14;;;;;11.81;40.87;100416.31;6363762;20;3461796;-55
2022/02/24 11:02:00;;;;;;;;;6.00;6.00;;;;;11.75;41.00;100411.28;6320347;20;2739930;-51
2022/02/24 11:04:29;;;;;;;;;13.80;10.20;;;;;11.32;41.99;100405.50;6307032;20;2792115;-54
2022/02/24 11:06:58;;;;;;;;;10.00;7.00;;;;;11.92;41.79;100397.78;6289381;20;2752387;-51
2022/02/24 11:09:26;;;;;;;;;11.00;10.00;;;;;11.90;41.24;100394.31;6287316;20;2792949;-57